createdAt,value
2023-04-16T00:00:08.982Z,1019.03
2023-04-16T00:05:08.554Z,1019.05
2023-04-16T00:10:08.647Z,1019.1
2023-04-16T00:15:08.742Z,1019.1
2023-04-16T00:20:08.795Z,1019.22
2023-04-16T00:25:08.851Z,1019.14
2023-04-16T00:30:08.879Z,1019.16
2023-04-16T00:35:08.926Z,1019.14
2023-04-16T00:40:09.055Z,1019.09
2023-04-16T00:45:08.100Z,1019.15
2023-04-16T00:50:08.147Z,1019.2
2023-04-16T00:55:08.195Z,1019.18
2023-04-16T01:00:08.188Z,1019.16
2023-04-16T01:05:08.262Z,1019.26
2023-04-16T01:10:08.329Z,1019.37
2023-04-16T01:15:08.387Z,1019.32
2023-04-16T01:20:08.503Z,1019.3
2023-04-16T01:25:08.533Z,1019.33
2023-04-16T01:30:08.664Z,1019.35
2023-04-16T01:35:08.706Z,1019.33
2023-04-16T01:40:09.730Z,1019.34
2023-04-16T01:45:08.794Z,1019.31
2023-04-16T01:50:08.836Z,1019.27
2023-04-16T01:55:08.886Z,1019.27
2023-04-16T02:00:08.914Z,1019.3
2023-04-16T02:05:08.978Z,1019.21
2023-04-16T02:10:08.026Z,1019.21
2023-04-16T02:15:08.069Z,1019.22
2023-04-16T02:20:08.186Z,1019.19
2023-04-16T02:25:08.221Z,1019.28
2023-04-16T02:30:08.233Z,1019.35
2023-04-16T02:35:08.266Z,1019.34
2023-04-16T02:40:08.321Z,1019.34
2023-04-16T02:45:08.353Z,1019.35
2023-04-16T02:50:08.462Z,1019.39
2023-04-16T02:55:08.554Z,1019.36
2023-04-16T03:00:08.668Z,1019.44
2023-04-16T03:05:08.749Z,1019.52
2023-04-16T03:10:08.784Z,1019.43
2023-04-16T03:15:08.818Z,1019.46
2023-04-16T03:20:08.866Z,1019.46
2023-04-16T03:25:08.903Z,1019.51
2023-04-16T03:30:08.919Z,1019.51
2023-04-16T03:35:08.995Z,1019.53
2023-04-16T03:40:08.066Z,1019.53
2023-04-16T03:45:08.094Z,1019.53
2023-04-16T03:50:08.124Z,1019.48
2023-04-16T03:55:08.152Z,1019.51
2023-04-16T04:00:08.185Z,1019.58
2023-04-16T04:05:04.106Z,1019.58
2023-04-16T04:10:13.140Z,1019.59
2023-04-16T04:15:03.122Z,1019.55
2023-04-16T04:20:05.066Z,1019.65
2023-04-16T04:25:02.468Z,1019.69
2023-04-16T04:30:05.303Z,1019.74
2023-04-16T04:35:07.287Z,1019.76
2023-04-16T04:40:05.459Z,1019.82
2023-04-16T04:45:05.357Z,1019.9
2023-04-16T04:50:13.348Z,1019.91
2023-04-16T04:55:03.105Z,1019.86
2023-04-16T05:00:03.038Z,1019.9
2023-04-16T05:05:03.541Z,1019.91
2023-04-16T05:10:03.955Z,1019.99
2023-04-16T05:15:04.583Z,1020.0
2023-04-16T05:20:04.806Z,1020.02
2023-04-16T05:25:03.838Z,1020.06
2023-04-16T05:30:03.693Z,1020.17
2023-04-16T05:35:03.797Z,1020.23
2023-04-16T05:40:03.582Z,1020.25
2023-04-16T05:45:03.512Z,1020.29
2023-04-16T05:50:04.049Z,1020.41
2023-04-16T05:55:03.986Z,1020.42
2023-04-16T06:00:08.133Z,1020.41
2023-04-16T06:05:03.177Z,1020.4
2023-04-16T06:10:04.497Z,1020.53
2023-04-16T06:15:03.997Z,1020.62
2023-04-16T06:20:03.087Z,1020.6
2023-04-16T06:25:09.020Z,1020.68
2023-04-16T06:30:03.443Z,1020.65
2023-04-16T06:35:06.489Z,1020.65
2023-04-16T06:40:04.536Z,1020.76
2023-04-16T06:45:03.581Z,1020.86
2023-04-16T06:50:13.603Z,1020.83
2023-04-16T06:55:03.373Z,1020.8
2023-04-16T07:00:05.480Z,1020.83
2023-04-16T07:05:04.297Z,1020.82
2023-04-16T07:10:03.135Z,1020.82
2023-04-16T07:15:05.135Z,1020.82
2023-04-16T07:20:03.812Z,1020.88
2023-04-16T07:25:17.188Z,1020.93
2023-04-16T07:30:16.676Z,1020.89
2023-04-16T07:35:04.318Z,1020.92
2023-04-16T07:40:11.078Z,1021.03
2023-04-16T07:45:19.469Z,1021.16
2023-04-16T07:50:03.578Z,1021.14
2023-04-16T07:55:12.942Z,1021.18
2023-04-16T08:00:02.250Z,1021.27
2023-04-16T08:05:07.738Z,1021.43
2023-04-16T08:10:04.442Z,1021.44
2023-04-16T08:15:02.822Z,1021.44
2023-04-16T08:20:16.942Z,1021.5
2023-04-16T08:25:04.971Z,1021.54
2023-04-16T08:30:06.412Z,1021.56
2023-04-16T08:35:03.270Z,1021.62
2023-04-16T08:40:03.767Z,1021.62
2023-04-16T08:45:13.803Z,1021.67
2023-04-16T08:50:06.757Z,1021.78
2023-04-16T08:55:04.871Z,1021.76
2023-04-16T09:00:11.726Z,1021.86
2023-04-16T09:05:13.669Z,1021.8
2023-04-16T09:10:11.905Z,1021.79
2023-04-16T09:15:21.429Z,1021.91
2023-04-16T09:20:12.411Z,1021.85
2023-04-16T09:25:12.458Z,1021.95
2023-04-16T09:30:04.917Z,1021.95
2023-04-16T09:35:16.767Z,1021.93
2023-04-16T09:40:03.468Z,1021.9
2023-04-16T09:45:05.785Z,1021.95
2023-04-16T09:50:04.757Z,1022.02
2023-04-16T09:55:03.077Z,1021.98
2023-04-16T10:00:07.059Z,1021.91
2023-04-16T10:05:06.944Z,1021.98
2023-04-16T10:10:06.486Z,1021.92
2023-04-16T10:15:06.918Z,1022.01
2023-04-16T10:20:06.238Z,1021.99
2023-04-16T10:25:04.448Z,1021.97
2023-04-16T10:30:09.428Z,1021.85
2023-04-16T10:35:14.175Z,1021.99
2023-04-16T10:40:12.263Z,1022.03
2023-04-16T10:45:14.682Z,1022.1
2023-04-16T10:50:13.625Z,1022.03
2023-04-16T10:55:06.109Z,1022.07
2023-04-16T11:00:13.710Z,1022.06
2023-04-16T11:05:03.393Z,1022.05
2023-04-16T11:10:03.864Z,1022.04
2023-04-16T11:15:03.351Z,1021.89
2023-04-16T11:20:02.970Z,1022.03
2023-04-16T11:25:02.884Z,1021.98
2023-04-16T11:30:10.056Z,1022.02
2023-04-16T11:35:12.589Z,1022.05
2023-04-16T11:40:03.042Z,1021.87
2023-04-16T11:45:02.887Z,1021.99
2023-04-16T11:50:03.131Z,1021.99
2023-04-16T11:55:04.068Z,1021.87
2023-04-16T12:00:03.669Z,1021.94
2023-04-16T12:05:02.536Z,1022.05
2023-04-16T12:10:03.397Z,1021.96
2023-04-16T12:15:03.367Z,1022.03
2023-04-16T12:20:02.812Z,1021.94
2023-04-16T12:25:03.277Z,1021.91
2023-04-16T12:30:02.599Z,1021.97
2023-04-16T12:35:02.815Z,1022.04
2023-04-16T12:40:04.132Z,1022.04
2023-04-16T12:45:02.468Z,1022.07
2023-04-16T12:50:02.818Z,1022.11
2023-04-16T12:55:03.388Z,1022.01
2023-04-16T13:00:02.837Z,1022.01
2023-04-16T13:05:03.399Z,1021.99
2023-04-16T13:10:02.723Z,1022.09
2023-04-16T13:15:03.187Z,1022.1
2023-04-16T13:20:02.396Z,1022.07
2023-04-16T13:25:03.224Z,1022.07
2023-04-16T13:30:02.606Z,1022.07
2023-04-16T13:35:03.340Z,1021.98
2023-04-16T13:40:02.491Z,1021.98
2023-04-16T13:45:03.144Z,1021.97
2023-04-16T13:50:02.363Z,1021.95
2023-04-16T13:55:02.995Z,1021.92
2023-04-16T14:00:02.341Z,1021.92
2023-04-16T14:05:02.643Z,1021.92
2023-04-16T14:10:03.481Z,1021.85
2023-04-16T14:15:02.713Z,1021.87
2023-04-16T14:20:03.143Z,1021.87
2023-04-16T14:25:03.496Z,1021.94
2023-04-16T14:30:03.262Z,1021.84
2023-04-16T14:35:03.244Z,1022.04
2023-04-16T14:40:02.560Z,1022.05
2023-04-16T14:45:03.040Z,1022.12
2023-04-16T14:50:02.360Z,1022.17
2023-04-16T14:55:03.288Z,1022.22
2023-04-16T15:00:02.522Z,1022.21
2023-04-16T15:05:02.998Z,1022.29
2023-04-16T15:10:02.418Z,1022.34
2023-04-16T15:15:02.538Z,1022.34
2023-04-16T15:20:02.873Z,1022.34
2023-04-16T15:25:03.118Z,1022.16
2023-04-16T15:30:02.284Z,1022.2
2023-04-16T15:35:02.603Z,1022.18
2023-04-16T15:40:03.566Z,1022.14
2023-04-16T15:45:02.778Z,1022.16
2023-04-16T15:50:03.057Z,1022.28
2023-04-16T15:55:04.229Z,1022.23
2023-04-16T16:00:07.443Z,1022.21
2023-04-16T16:05:02.821Z,1022.26
2023-04-16T16:10:03.165Z,1022.21
2023-04-16T16:15:02.335Z,1022.2
2023-04-16T16:20:02.653Z,1022.23
2023-04-16T16:25:02.920Z,1022.3
2023-04-16T16:30:03.147Z,1022.3
2023-04-16T16:35:02.416Z,1022.43
2023-04-16T16:40:02.714Z,1022.44
2023-04-16T16:45:03.304Z,1022.39
2023-04-16T16:50:03.267Z,1022.34
2023-04-16T16:55:02.806Z,1022.34
2023-04-16T17:00:02.945Z,1022.33
2023-04-16T17:05:02.364Z,1022.39
2023-04-16T17:10:05.380Z,1022.31
2023-04-16T17:15:02.963Z,1022.35
2023-04-16T17:20:02.921Z,1022.36
2023-04-16T17:25:02.234Z,1022.38
2023-04-16T17:30:02.869Z,1022.48
2023-04-16T17:35:03.432Z,1022.36
2023-04-16T17:40:02.606Z,1022.42
2023-04-16T17:45:02.802Z,1022.46
2023-04-16T17:50:03.037Z,1022.45
2023-04-16T17:55:02.238Z,1022.51
2023-04-16T18:00:02.466Z,1022.53
2023-04-16T18:05:02.722Z,1022.54
2023-04-16T18:10:02.981Z,1022.6
2023-04-16T18:15:02.148Z,1022.6
2023-04-16T18:20:02.282Z,1022.65
2023-04-16T18:25:02.514Z,1022.6
2023-04-16T18:30:04.466Z,1022.64
2023-04-16T18:35:02.993Z,1022.64
2023-04-16T18:40:02.165Z,1022.8
2023-04-16T18:45:02.335Z,1022.86
2023-04-16T18:50:02.553Z,1022.84
2023-04-16T18:55:02.710Z,1022.84
2023-04-16T19:00:02.820Z,1022.88
2023-04-16T19:05:02.943Z,1022.88
2023-04-16T19:10:02.039Z,1023.03
2023-04-16T19:15:02.195Z,1023.02
2023-04-16T19:20:02.357Z,1023.14
2023-04-16T19:25:02.486Z,1023.07
2023-04-16T19:30:02.620Z,1023.13
2023-04-16T19:35:02.737Z,1023.07
2023-04-16T19:40:02.886Z,1023.2
2023-04-16T19:45:03.118Z,1023.24
2023-04-16T19:50:02.273Z,1023.27
2023-04-16T19:55:02.381Z,1023.27
2023-04-16T20:00:02.533Z,1023.33
2023-04-16T20:05:02.645Z,1023.33
2023-04-16T20:10:02.797Z,1023.4
2023-04-16T20:15:02.892Z,1023.46
2023-04-16T20:20:03.044Z,1023.45
2023-04-16T20:25:02.196Z,1023.46
2023-04-16T20:30:02.373Z,1023.47
2023-04-16T20:35:02.539Z,1023.47
2023-04-16T20:40:02.721Z,1023.58
2023-04-16T20:45:02.966Z,1023.58
2023-04-16T20:50:02.241Z,1023.52
2023-04-16T20:55:02.401Z,1023.51
2023-04-16T21:00:02.521Z,1023.51
2023-04-16T21:05:02.648Z,1023.47
2023-04-16T21:10:02.753Z,1023.49
2023-04-16T21:15:02.908Z,1023.45
2023-04-16T21:20:03.021Z,1023.5
2023-04-16T21:25:02.192Z,1023.44
2023-04-16T21:30:02.406Z,1023.46
2023-04-16T21:35:02.525Z,1023.52
2023-04-16T21:40:02.654Z,1023.5
2023-04-16T21:45:03.049Z,1023.48
2023-04-16T21:50:02.212Z,1023.64
2023-04-16T21:55:02.425Z,1023.59
2023-04-16T22:00:02.759Z,1023.6
2023-04-16T22:05:15.781Z,1023.58
2023-04-16T22:10:08.940Z,1023.59
2023-04-16T22:15:07.989Z,1023.58
2023-04-16T22:20:10.869Z,1023.58
2023-04-16T22:25:09.000Z,1023.6
2023-04-16T22:30:08.120Z,1023.52
2023-04-16T22:35:08.286Z,1023.59
2023-04-16T22:40:08.362Z,1023.57
2023-04-16T22:45:08.551Z,1023.63
2023-04-16T22:50:08.634Z,1023.62
2023-04-16T22:55:08.721Z,1023.56
2023-04-16T23:01:13.929Z,1023.48
2023-04-16T23:05:07.978Z,1023.41
2023-04-16T23:10:08.809Z,1023.53
2023-04-16T23:15:08.983Z,1023.47
2023-04-16T23:20:08.019Z,1023.44
2023-04-16T23:25:08.072Z,1023.39
2023-04-16T23:30:08.256Z,1023.49
2023-04-16T23:35:08.493Z,1023.47
2023-04-16T23:40:08.585Z,1023.55
2023-04-16T23:45:08.765Z,1023.61
2023-04-16T23:50:09.190Z,1023.61
2023-04-16T23:55:08.281Z,1023.53
